Time;durP1;ratioP1;P1;durP2;ratioP2;P2;SDS_P1;SDS_P2;PMS_P1;PMS_P2;Temp;Humidity;BMP_temperature;BMP_pressure;BME280_temperature;BME280_humidity;BME280_pressure;Samples;Min_cycle;Max_cycle;Signal;HPM_P1;HPM_P2
2022/10/23 00:00:11;;;;;;;10.10;5.93;;;;;;;12.81;85.95;93634.22;5069127;28;20048;-77
2022/10/23 00:02:38;;;;;;;10.77;5.95;;;;;;;12.81;85.79;93636.78;5069298;28;20052;-77
2022/10/23 00:05:07;;;;;;;11.43;6.38;;;;;;;12.83;85.33;93634.81;5068923;28;20109;-79
2022/10/23 00:07:33;;;;;;;9.88;6.72;;;;;;;12.86;85.64;93636.94;5069343;28;20052;-76
2022/10/23 00:10:00;;;;;;;10.65;6.32;;;;;;;12.88;85.20;93639.31;5069228;28;20048;-76
2022/10/23 00:12:27;;;;;;;14.38;6.47;;;;;;;12.92;84.74;93643.84;5069029;28;20048;-76
2022/10/23 00:14:54;;;;;;;14.00;7.57;;;;;;;12.96;84.27;93642.41;5069028;28;20051;-76
2022/10/23 00:17:21;;;;;;;14.80;7.93;;;;;;;12.92;86.15;93646.41;5074576;28;20048;-77
2022/10/23 00:19:47;;;;;;;12.48;6.65;;;;;;;12.95;85.71;93642.63;5075486;28;20040;-77
2022/10/23 00:22:16;;;;;;;11.27;6.70;;;;;;;12.94;85.55;93643.63;5075753;28;20048;-77
2022/10/23 00:24:42;;;;;;;9.93;6.20;;;;;;;12.96;84.98;93631.31;5075727;28;20048;-77
2022/10/23 00:27:09;;;;;;;12.65;7.07;;;;;;;12.94;83.95;93630.72;5075557;28;20097;-76
2022/10/23 00:29:36;;;;;;;9.07;6.03;;;;;;;12.91;84.22;93631.19;5075360;28;20044;-77
2022/10/23 00:32:03;;;;;;;11.30;7.18;;;;;;;12.83;84.96;93633.00;5075402;28;20044;-77
2022/10/23 00:34:29;;;;;;;11.95;7.00;;;;;;;12.86;85.07;93646.50;5075457;28;20036;-76
2022/10/23 00:36:56;;;;;;;11.55;6.70;;;;;;;12.81;86.18;93642.75;5075399;28;20505;-76
2022/10/23 00:39:24;;;;;;;10.10;6.50;;;;;;;12.65;86.01;93631.19;5075658;28;20052;-76
2022/10/23 00:41:51;;;;;;;11.70;6.75;;;;;;;12.33;90.27;93651.06;5075576;28;20088;-76
2022/10/23 00:44:54;;;;;;;10.25;6.90;;;;;;;11.75;94.23;93656.91;5075209;28;20450;-77
2022/10/23 00:47:21;;;;;;;16.50;9.73;;;;;;;10.98;98.81;93674.78;5075690;28;20044;-76
2022/10/23 00:49:48;;;;;;;26.35;13.52;;;;;;;10.85;100.00;93681.50;5075176;28;20040;-77
2022/10/23 00:52:15;;;;;;;21.80;15.40;;;;;;;10.68;100.00;93683.69;5075722;28;20049;-76
2022/10/23 00:54:44;;;;;;;23.58;15.02;;;;;;;10.75;100.00;93678.56;5075337;28;20127;-76
2022/10/23 00:57:13;;;;;;;23.30;16.05;;;;;;;10.72;100.00;93681.50;5075216;28;20135;-76
2022/10/23 00:59:40;;;;;;;25.58;15.65;;;;;;;10.66;100.00;93670.25;5075384;28;20044;-76
2022/10/23 01:02:07;;;;;;;24.25;14.85;;;;;;;10.53;100.00;93661.56;5075197;28;20057;-76
2022/10/23 01:04:36;;;;;;;22.92;15.73;;;;;;;10.67;100.00;93672.63;5075308;28;20117;-75
2022/10/23 01:07:08;;;;;;;27.10;17.15;;;;;;;10.40;100.00;93666.66;5075111;28;20048;-75
2022/10/23 01:09:39;;;;;;;28.63;16.13;;;;;;;10.30;100.00;93690.16;5075088;28;20090;-75
2022/10/23 01:12:15;;;;;;;26.52;15.77;;;;;;;10.16;100.00;93687.59;5075132;28;20098;-76
2022/10/23 01:14:57;;;;;;;26.17;17.13;;;;;;;9.96;100.00;93681.63;5075308;28;20055;-76
2022/10/23 01:17:30;;;;;;;26.17;16.33;;;;;;;10.05;100.00;93685.59;5074918;28;20087;-76
2022/10/23 01:20:11;;;;;;;29.80;17.55;;;;;;;10.06;100.00;93682.03;5075221;28;20045;-76
2022/10/23 01:22:54;;;;;;;26.15;16.15;;;;;;;9.97;100.00;93693.44;5075205;28;20459;-75
2022/10/23 01:25:32;;;;;;;23.88;15.75;;;;;;;10.08;100.00;93689.53;5074993;28;20045;-75
2022/10/23 01:28:02;;;;;;;20.85;15.48;;;;;;;10.13;100.00;93685.41;5072790;28;20071;-76
2022/10/23 01:30:30;;;;;;;26.30;17.98;;;;;;;10.01;100.00;93689.53;5071950;28;20110;-75
2022/10/23 01:33:02;;;;;;;27.65;18.42;;;;;;;10.00;100.00;93688.72;5071897;28;20048;-76
2022/10/23 01:35:34;;;;;;;22.92;15.40;;;;;;;10.06;100.00;93691.50;5071665;28;20094;-76
2022/10/23 01:38:05;;;;;;;24.08;16.40;;;;;;;9.86;100.00;93692.25;5071503;28;20041;-76
2022/10/23 01:40:37;;;;;;;27.48;17.58;;;;;;;9.92;100.00;93678.66;5060564;28;20045;-76
2022/10/23 01:43:12;;;;;;;26.15;16.45;;;;;;;10.07;100.00;93675.09;5069692;28;20045;-76
2022/10/23 01:45:42;;;;;;;26.77;16.27;;;;;;;10.05;100.00;93682.22;5071814;28;20048;-77
2022/10/23 01:48:13;;;;;;;45.92;24.60;;;;;;;10.00;100.00;93685.38;5071511;28;20037;-76
2022/10/23 01:50:42;;;;;;;29.25;15.60;;;;;;;9.92;100.00;93676.06;5071383;28;20553;-76
2022/10/23 01:53:09;;;;;;;131.15;62.13;;;;;;;9.95;100.00;93691.06;5071335;28;20090;-76
2022/10/23 01:55:39;;;;;;;121.10;55.50;;;;;;;9.74;100.00;93684.31;5071606;28;20431;-76
2022/10/23 01:58:09;;;;;;;50.47;28.15;;;;;;;9.77;100.00;93671.09;5070965;28;20052;-76
2022/10/23 02:00:37;;;;;;;82.93;39.97;;;;;;;9.74;100.00;93686.88;5071106;28;20041;-76
2022/10/23 02:03:07;;;;;;;36.05;21.40;;;;;;;9.79;100.00;93687.09;5071101;28;20492;-76
2022/10/23 02:05:34;;;;;;;28.23;17.58;;;;;;;9.90;100.00;93690.84;5071540;28;20098;-77
2022/10/23 02:08:01;;;;;;;30.55;15.45;;;;;;;9.99;100.00;93691.47;5071406;28;20053;-76
2022/10/23 02:10:34;;;;;;;87.15;48.90;;;;;;;10.03;100.00;93696.03;5071217;28;20045;-77
2022/10/23 02:13:05;;;;;;;24.70;14.88;;;;;;;10.05;100.00;93688.16;5071299;28;20056;-77
2022/10/23 02:15:39;;;;;;;47.58;26.05;;;;;;;10.24;100.00;93698.66;5070927;28;20098;-77
2022/10/23 02:18:11;;;;;;;39.55;24.13;;;;;;;10.41;100.00;93692.16;5070839;28;20045;-77
2022/10/23 02:20:42;;;;;;;40.78;21.40;;;;;;;10.58;100.00;93685.84;5070990;28;20133;-77
2022/10/23 02:23:17;;;;;;;31.48;19.67;;;;;;;10.69;100.00;93685.25;5070736;28;20048;-77
2022/10/23 02:25:49;;;;;;;28.05;16.63;;;;;;;10.77;100.00;93689.41;5070600;28;20554;-76
2022/10/23 02:28:19;;;;;;;31.13;17.98;;;;;;;10.91;100.00;93692.75;5070872;28;20044;-76
2022/10/23 02:30:50;;;;;;;29.65;16.75;;;;;;;10.98;100.00;93696.13;5070395;28;20562;-76
2022/10/23 02:33:18;;;;;;;25.00;16.08;;;;;;;11.06;100.00;93695.91;5070895;28;20097;-76
2022/10/23 02:35:45;;;;;;;24.67;15.05;;;;;;;11.09;100.00;93700.66;5070578;28;20398;-76
2022/10/23 02:38:34;;;;;;;21.35;14.25;;;;;;;11.18;100.00;93693.53;5070489;28;20135;-75
2022/10/23 02:41:13;;;;;;;22.38;13.18;;;;;;;11.26;100.00;93707.16;5070254;28;20090;-76
2022/10/23 02:43:50;;;;;;;22.10;14.80;;;;;;;11.25;100.00;93695.28;5070541;28;20094;-76
2022/10/23 02:46:29;;;;;;;24.63;14.70;;;;;;;11.29;100.00;93688.75;5070468;28;20130;-76
2022/10/23 02:49:08;;;;;;;26.50;14.55;;;;;;;11.26;100.00;93687.38;5070427;28;20057;-76
2022/10/23 02:51:44;;;;;;;24.00;14.10;;;;;;;11.28;100.00;93690.53;5070369;28;20044;-76
2022/10/23 02:54:22;;;;;;;24.33;14.95;;;;;;;11.25;100.00;93697.88;5070180;28;20090;-76
2022/10/23 02:56:57;;;;;;;22.58;14.15;;;;;;;11.25;100.00;93696.06;5069744;28;20048;-76
2022/10/23 02:59:31;;;;;;;32.75;18.27;;;;;;;11.16;100.00;93702.44;5070331;28;20451;-76
2022/10/23 03:02:06;;;;;;;25.38;15.05;;;;;;;11.06;100.00;93701.06;5069585;28;20554;-76
2022/10/23 03:04:35;;;;;;;28.23;14.65;;;;;;;11.04;100.00;93705.63;5069932;28;20101;-76
2022/10/23 03:07:02;;;;;;;25.88;15.77;;;;;;;11.04;100.00;93710.75;5069775;28;20041;-76
2022/10/23 03:09:28;;;;;;;28.13;16.27;;;;;;;11.07;100.00;93702.63;5069879;28;20106;-76
2022/10/23 03:11:55;;;;;;;27.02;15.48;;;;;;;11.16;100.00;93710.91;5069899;28;20094;-76
2022/10/23 03:14:22;;;;;;;28.27;16.35;;;;;;;11.19;100.00;93723.38;5069987;28;20049;-76
2022/10/23 03:16:48;;;;;;;26.35;15.70;;;;;;;11.17;100.00;93714.28;5069258;28;20103;-76
2022/10/23 03:19:17;;;;;;;24.02;14.93;;;;;;;11.09;100.00;93708.38;5069787;28;20125;-76
2022/10/23 03:21:43;;;;;;;26.73;15.05;;;;;;;10.78;100.00;93725.19;5069941;28;20444;-76
2022/10/23 03:24:10;;;;;;;22.45;14.48;;;;;;;10.74;100.00;93715.53;5069227;28;20493;-77
2022/10/23 03:26:37;;;;;;;25.60;15.10;;;;;;;10.41;100.00;93729.88;5069827;28;20105;-76
2022/10/23 03:29:03;;;;;;;22.73;14.98;;;;;;;10.47;100.00;93730.91;5069585;28;20106;-76
2022/10/23 03:31:30;;;;;;;24.63;14.70;;;;;;;10.52;100.00;93737.03;5069885;28;20102;-77
2022/10/23 03:33:58;;;;;;;30.40;16.25;;;;;;;10.50;100.00;93731.31;5069665;28;20098;-77
2022/10/23 03:36:26;;;;;;;24.42;15.98;;;;;;;10.40;100.00;93723.97;5069068;28;20521;-76
2022/10/23 03:38:53;;;;;;;24.13;15.25;;;;;;;10.34;100.00;93734.22;5069734;28;20459;-77
2022/10/23 03:41:20;;;;;;;27.38;15.02;;;;;;;10.19;100.00;93717.22;5069420;28;20049;-76
2022/10/23 03:43:47;;;;;;;24.48;15.30;;;;;;;10.07;100.00;93723.88;5069044;28;20048;-76
2022/10/23 03:46:13;;;;;;;28.90;17.00;;;;;;;10.03;100.00;93731.97;5069470;28;20049;-76
2022/10/23 03:48:40;;;;;;;29.70;16.63;;;;;;;9.94;100.00;93756.22;5069197;28;20089;-77
2022/10/23 03:51:07;;;;;;;29.80;18.75;;;;;;;9.93;100.00;93753.84;5068751;28;20113;-76
2022/10/23 03:53:35;;;;;;;29.10;17.38;;;;;;;9.94;100.00;93751.09;5069496;28;20114;-76
2022/10/23 03:56:02;;;;;;;26.80;15.63;;;;;;;9.86;100.00;93757.19;5069278;28;20052;-76
2022/10/23 03:58:30;;;;;;;24.55;16.38;;;;;;;9.76;100.00;93749.03;5069071;28;20053;-76
2022/10/23 04:00:57;;;;;;;29.95;16.92;;;;;;;9.82;100.00;93755.19;5068882;28;20507;-75
2022/10/23 04:03:24;;;;;;;30.02;17.15;;;;;;;9.81;100.00;93759.50;5069308;28;20102;-76
2022/10/23 04:05:50;;;;;;;26.88;18.52;;;;;;;9.70;100.00;93755.72;5068927;28;20550;-75
2022/10/23 04:08:17;;;;;;;27.38;18.20;;;;;;;9.69;100.00;93761.03;5069320;28;20056;-75
2022/10/23 04:10:45;;;;;;;35.65;17.08;;;;;;;9.61;100.00;93769.69;5069163;28;20040;-75
2022/10/23 04:13:12;;;;;;;31.92;17.17;;;;;;;9.51;100.00;93766.66;5069543;28;20113;-75
2022/10/23 04:15:38;;;;;;;29.80;17.25;;;;;;;9.51;100.00;93774.38;5068884;28;20086;-76
2022/10/23 04:18:05;;;;;;;29.83;16.98;;;;;;;9.38;100.00;93775.06;5063717;28;20052;-76
2022/10/23 04:20:32;;;;;;;32.83;18.80;;;;;;;9.38;100.00;93775.88;5052284;28;20045;-77
2022/10/23 04:22:59;;;;;;;28.77;16.98;;;;;;;9.41;100.00;93774.72;5068830;28;20053;-76
2022/10/23 04:25:26;;;;;;;28.88;18.15;;;;;;;9.30;100.00;93781.94;5069017;28;20052;-76
2022/10/23 04:27:54;;;;;;;29.23;16.60;;;;;;;9.24;100.00;93772.44;5068698;28;20079;-76
2022/10/23 04:30:21;;;;;;;31.42;17.42;;;;;;;9.33;100.00;93788.47;5068922;28;20513;-76
2022/10/23 04:32:50;;;;;;;26.55;16.92;;;;;;;9.28;100.00;93791.59;5069007;28;20095;-76
2022/10/23 04:35:17;;;;;;;28.35;17.58;;;;;;;9.27;100.00;93791.78;5068975;28;20049;-76
2022/10/23 04:37:45;;;;;;;29.13;17.85;;;;;;;9.23;100.00;93787.00;5068988;28;20052;-76
2022/10/23 04:40:12;;;;;;;31.27;17.50;;;;;;;9.23;100.00;93788.78;5067985;28;20122;-76
2022/10/23 04:42:39;;;;;;;30.92;18.50;;;;;;;9.20;100.00;93791.72;5068752;28;20618;-75
2022/10/23 04:45:08;;;;;;;27.67;16.92;;;;;;;9.15;100.00;93797.41;5068801;28;20044;-76
2022/10/23 04:47:34;;;;;;;24.42;15.98;;;;;;;9.12;100.00;93795.22;5068676;28;20122;-76
2022/10/23 04:50:01;;;;;;;24.08;14.13;;;;;;;9.07;100.00;93792.41;5068487;28;20094;-76
2022/10/23 04:52:28;;;;;;;23.98;14.52;;;;;;;9.01;100.00;93788.03;5068604;28;20091;-75
2022/10/23 04:54:55;;;;;;;20.38;14.48;;;;;;;8.99;100.00;93797.69;5068887;28;20078;-75
2022/10/23 04:57:21;;;;;;;26.92;15.63;;;;;;;8.95;100.00;93794.69;5068691;28;20447;-75
2022/10/23 04:59:48;;;;;;;24.08;14.43;;;;;;;8.92;100.00;93798.41;5068393;28;20048;-76
2022/10/23 05:02:16;;;;;;;24.55;15.02;;;;;;;8.89;100.00;93803.91;5068152;28;20057;-76
2022/10/23 05:04:43;;;;;;;22.02;14.52;;;;;;;8.92;100.00;93807.88;5071684;28;20086;-76
2022/10/23 05:07:09;;;;;;;22.23;14.85;;;;;;;8.91;100.00;93803.72;5072180;28;20098;-77
2022/10/23 05:09:36;;;;;;;23.67;15.38;;;;;;;8.91;100.00;93807.09;5072110;28;20493;-76
2022/10/23 05:12:03;;;;;;;21.55;14.52;;;;;;;8.95;100.00;93804.94;5072001;28;20051;-76
2022/10/23 05:14:30;;;;;;;24.05;15.38;;;;;;;8.95;100.00;93810.06;5071913;28;20040;-76
2022/10/23 05:17:02;;;;;;;25.67;15.38;;;;;;;8.90;100.00;93810.63;5072200;28;20056;-76
2022/10/23 05:19:38;;;;;;;26.27;15.75;;;;;;;8.93;100.00;93814.56;5072005;28;20458;-76
2022/10/23 05:22:05;;;;;;;23.55;15.40;;;;;;;8.91;100.00;93808.84;5072263;28;20530;-76
2022/10/23 05:24:32;;;;;;;24.77;15.10;;;;;;;8.92;100.00;93815.56;5071763;28;20044;-76
2022/10/23 05:26:59;;;;;;;22.90;14.25;;;;;;;8.69;100.00;93786.59;5072110;28;20447;-76
2022/10/23 05:29:26;;;;;;;20.38;13.23;;;;;;;8.81;100.00;93833.00;5071817;28;20507;-76
2022/10/23 05:31:57;;;;;;;25.08;14.32;;;;;;;8.85;100.00;93840.31;5071999;28;20041;-76
2022/10/23 05:34:25;;;;;;;23.58;15.45;;;;;;;8.81;100.00;93843.25;5071927;28;20094;-76
2022/10/23 05:36:54;;;;;;;23.80;15.35;;;;;;;8.80;100.00;93841.66;5071841;28;20044;-76
2022/10/23 05:39:21;;;;;;;25.52;15.32;;;;;;;8.78;100.00;93841.06;5071774;28;20086;-76
2022/10/23 05:41:48;;;;;;;23.48;14.82;;;;;;;8.85;100.00;93846.25;5059620;28;20098;-76
2022/10/23 05:44:17;;;;;;;22.50;14.82;;;;;;;8.84;100.00;93833.63;5069911;28;20606;-76
2022/10/23 05:46:44;;;;;;;20.42;13.80;;;;;;;8.89;100.00;93844.91;5071676;28;20443;-76
2022/10/23 05:49:11;;;;;;;24.25;15.50;;;;;;;8.98;100.00;93852.47;5071230;28;20098;-76
2022/10/23 05:51:38;;;;;;;21.88;15.65;;;;;;;8.93;100.00;93842.75;5071687;28;20044;-76
2022/10/23 05:54:07;;;;;;;27.92;16.50;;;;;;;8.99;100.00;93842.03;5071713;28;20434;-75
2022/10/23 05:56:34;;;;;;;28.13;18.02;;;;;;;9.08;100.00;93850.41;5071810;28;20053;-76
2022/10/23 05:59:01;;;;;;;51.40;33.13;;;;;;;9.12;100.00;93848.25;5071231;28;20101;-76
2022/10/23 06:01:28;;;;;;;39.58;21.52;;;;;;;9.23;100.00;93861.34;5071276;28;20114;-76
2022/10/23 06:03:56;;;;;;;38.53;24.55;;;;;;;9.34;100.00;93861.81;5071046;28;20036;-76
2022/10/23 06:06:23;;;;;;;29.40;17.75;;;;;;;9.39;100.00;93871.53;5070405;28;20417;-76
2022/10/23 06:08:50;;;;;;;31.40;19.10;;;;;;;9.41;100.00;93872.16;5071021;28;20048;-76
2022/10/23 06:11:21;;;;;;;28.50;17.85;;;;;;;9.49;100.00;93882.25;5070899;28;20504;-76
2022/10/23 06:13:48;;;;;;;30.23;17.63;;;;;;;9.57;100.00;93886.44;5070536;28;20052;-76
2022/10/23 06:16:16;;;;;;;28.27;17.65;;;;;;;9.59;100.00;93880.16;5071170;28;20127;-76
2022/10/23 06:18:44;;;;;;;32.17;21.10;;;;;;;9.73;100.00;93890.53;5070651;28;20554;-76
2022/10/23 06:21:12;;;;;;;31.80;18.27;;;;;;;9.80;100.00;93881.09;5071093;28;20045;-76
2022/10/23 06:23:40;;;;;;;28.98;17.17;;;;;;;9.86;100.00;93898.31;5071007;28;20381;-76
2022/10/23 06:26:08;;;;;;;30.75;19.17;;;;;;;9.94;100.00;93897.38;5070203;28;20048;-76
2022/10/23 06:28:37;;;;;;;31.77;19.15;;;;;;;9.84;100.00;93877.19;5070553;28;20094;-75
2022/10/23 06:31:05;;;;;;;29.77;17.90;;;;;;;9.86;100.00;93894.97;5056839;28;20102;-76
2022/10/23 06:33:32;;;;;;;29.90;17.38;;;;;;;9.86;100.00;93895.75;5070672;28;20046;-76
2022/10/23 06:35:59;;;;;;;30.48;18.85;;;;;;;9.88;100.00;93898.13;5070731;28;20101;-76
2022/10/23 06:38:26;;;;;;;30.60;18.42;;;;;;;9.99;100.00;93899.34;5070447;28;20052;-76
2022/10/23 06:40:53;;;;;;;28.25;17.80;;;;;;;10.06;100.00;93897.66;5069676;28;20199;-76
2022/10/23 06:43:20;;;;;;;32.05;19.67;;;;;;;10.27;100.00;93911.34;5070521;28;20052;-76
2022/10/23 06:45:49;;;;;;;30.33;21.85;;;;;;;10.40;100.00;93911.44;5069833;28;20543;-76
2022/10/23 06:48:16;;;;;;;39.95;21.83;;;;;;;10.61;100.00;93924.38;5070179;28;20075;-76
2022/10/23 06:50:42;;;;;;;38.35;20.48;;;;;;;10.69;100.00;93916.50;5070398;28;20044;-76
2022/10/23 06:53:11;;;;;;;32.03;21.02;;;;;;;10.82;100.00;93920.91;5070254;28;20052;-76
2022/10/23 06:55:39;;;;;;;35.30;20.42;;;;;;;10.89;100.00;93919.16;5070327;28;20153;-76
2022/10/23 06:58:09;;;;;;;66.80;41.08;;;;;;;11.10;100.00;93932.84;5067107;28;20385;-76
2022/10/23 07:00:36;;;;;;;42.55;26.42;;;;;;;11.21;100.00;93931.50;5069699;28;20047;-75
2022/10/23 07:03:04;;;;;;;39.90;24.45;;;;;;;11.36;100.00;93936.44;5069747;28;20642;-76
2022/10/23 07:05:32;;;;;;;47.25;30.98;;;;;;;11.47;100.00;93935.06;5070195;28;20127;-76
2022/10/23 07:07:59;;;;;;;42.13;28.10;;;;;;;11.58;100.00;93929.31;5069692;28;20094;-76
2022/10/23 07:10:26;;;;;;;48.08;29.15;;;;;;;11.79;100.00;93939.66;5069720;28;20052;-76
2022/10/23 07:12:53;;;;;;;50.20;28.65;;;;;;;11.96;100.00;93940.00;5069572;28;20181;-76
2022/10/23 07:15:22;;;;;;;51.53;29.55;;;;;;;12.01;100.00;93923.00;5069746;28;20128;-76
2022/10/23 07:17:49;;;;;;;51.35;26.92;;;;;;;12.23;100.00;93934.84;5069669;28;20052;-76
2022/10/23 07:20:17;;;;;;;50.10;27.88;;;;;;;12.33;100.00;93937.00;5070106;28;20451;-78
2022/10/23 07:22:44;;;;;;;46.47;28.35;;;;;;;12.49;100.00;93951.25;5053247;28;20053;-76
2022/10/23 07:25:11;;;;;;;42.15;23.45;;;;;;;12.66;100.00;93946.41;5066915;28;20094;-76
2022/10/23 07:27:38;;;;;;;35.95;20.67;;;;;;;12.81;100.00;93948.75;5057595;28;20091;-76
2022/10/23 07:30:08;;;;;;;30.98;17.75;;;;;;;12.98;100.00;93923.28;5067460;28;20045;-76
2022/10/23 07:32:35;;;;;;;21.88;13.05;;;;;;;13.47;98.46;93939.09;5067985;28;20080;-76
2022/10/23 07:35:01;;;;;;;16.00;8.90;;;;;;;13.85;92.12;93939.97;5069495;28;20126;-76
2022/10/23 07:37:30;;;;;;;13.68;8.15;;;;;;;14.09;90.36;93932.44;5069067;28;20500;-76
2022/10/23 07:39:57;;;;;;;19.98;9.30;;;;;;;14.43;90.36;93945.03;5069198;28;20554;-76
2022/10/23 07:42:24;;;;;;;17.20;7.72;;;;;;;14.62;85.27;93934.69;5069240;28;20040;-76
2022/10/23 07:44:50;;;;;;;13.45;7.68;;;;;;;14.93;82.46;93943.28;5069885;28;20052;-76
2022/10/23 07:47:17;;;;;;;17.98;8.60;;;;;;;15.04;82.68;93937.38;5069614;28;20102;-76
2022/10/23 07:49:44;;;;;;;18.90;6.32;;;;;;;15.30;80.18;93934.66;5069285;28;20049;-76
2022/10/23 07:52:11;;;;;;;11.10;5.43;;;;;;;15.36;81.55;93933.75;5068895;28;20044;-76
2022/10/23 07:54:39;;;;;;;11.30;6.07;;;;;;;15.47;81.09;93929.63;5069398;28;20045;-76
2022/10/23 07:57:06;;;;;;;10.70;5.28;;;;;;;15.52;81.30;93923.78;5068789;28;20445;-76
2022/10/23 07:59:33;;;;;;;11.27;5.95;;;;;;;15.63;80.39;93934.19;5068968;28;20136;-76
2022/10/23 08:02:00;;;;;;;11.45;5.93;;;;;;;15.82;80.80;93928.91;5068722;28;20117;-76
2022/10/23 08:04:26;;;;;;;12.38;5.05;;;;;;;16.07;80.59;93934.91;5068854;28;20053;-76
2022/10/23 08:06:54;;;;;;;13.43;5.57;;;;;;;16.21;78.85;93938.84;5069201;28;20045;-76
2022/10/23 08:09:21;;;;;;;15.80;6.53;;;;;;;16.26;77.89;93917.44;5069028;28;20409;-76
2022/10/23 08:11:49;;;;;;;13.63;6.00;;;;;;;16.42;78.61;93934.06;5069005;28;20036;-76
2022/10/23 08:14:16;;;;;;;39.35;20.02;;;;;;;16.68;80.91;93932.78;5069086;28;20040;-76
2022/10/23 08:16:43;;;;;;;13.30;6.20;;;;;;;16.80;75.76;93924.97;5069042;28;20448;-76
2022/10/23 08:19:14;;;;;;;14.25;5.65;;;;;;;16.94;75.75;93930.69;5068517;28;20044;-76
2022/10/23 08:21:41;;;;;;;9.60;5.30;;;;;;;16.90;75.50;93914.00;5068812;28;20863;-76
2022/10/23 08:24:12;;;;;;;10.65;4.85;;;;;;;17.03;75.69;93935.56;5068963;28;20098;-76
2022/10/23 08:26:38;;;;;;;7.10;4.05;;;;;;;16.99;78.86;93937.75;5069019;28;20072;-77
2022/10/23 08:29:06;;;;;;;9.30;4.70;;;;;;;17.05;79.19;93933.50;5068854;28;20049;-77
2022/10/23 08:31:33;;;;;;;8.65;4.40;;;;;;;17.15;79.73;93931.09;5068861;28;20048;-77
2022/10/23 08:34:00;;;;;;;9.85;4.40;;;;;;;17.52;79.24;93932.50;5068993;28;20048;-76
2022/10/23 08:36:28;;;;;;;7.43;3.90;;;;;;;17.48;77.51;93932.16;5068890;28;20052;-77
2022/10/23 08:38:57;;;;;;;6.07;3.00;;;;;;;17.05;79.27;93929.09;5072814;28;20484;-76
2022/10/23 08:41:27;;;;;;;6.25;3.53;;;;;;;17.01;79.46;93903.81;5072940;28;20049;-76
2022/10/23 08:44:00;;;;;;;7.55;3.67;;;;;;;17.32;78.40;93931.09;5073056;28;20052;-76
2022/10/23 08:46:31;;;;;;;10.40;3.83;;;;;;;17.21;77.80;93929.34;5072641;28;20040;-77
2022/10/23 08:49:13;;;;;;;6.57;3.67;;;;;;;17.34;78.38;93933.47;5072960;28;20044;-77
2022/10/23 08:51:44;;;;;;;7.13;3.53;;;;;;;17.59;77.18;93927.16;5072467;28;20489;-77
2022/10/23 08:54:15;;;;;;;11.02;4.20;;;;;;;17.80;76.38;93933.44;5072722;28;20106;-76
2022/10/23 08:56:48;;;;;;;8.68;3.20;;;;;;;17.64;75.90;93935.03;5072344;28;20098;-76
2022/10/23 08:59:26;;;;;;;6.05;3.15;;;;;;;17.57;77.64;93918.78;5072039;28;20052;-76
2022/10/23 09:02:10;;;;;;;6.25;3.28;;;;;;;17.31;77.88;93854.25;5071157;28;20088;-76
2022/10/23 09:04:57;;;;;;;5.93;3.45;;;;;;;18.13;75.55;93931.06;5071103;28;20127;-77
2022/10/23 09:07:40;;;;;;;11.02;2.67;;;;;;;17.89;75.72;93884.44;5072038;28;20052;-77
2022/10/23 09:10:31;;;;;;;6.25;2.53;;;;;;;17.85;75.44;93922.31;5070996;28;20451;-76
2022/10/23 09:13:04;;;;;;;4.35;2.83;;;;;;;17.85;77.20;93924.91;5064032;28;20056;-76
2022/10/23 09:15:35;;;;;;;3.65;1.92;;;;;;;18.08;77.06;93924.00;5072178;28;20044;-77
2022/10/23 09:18:12;;;;;;;4.68;1.88;;;;;;;18.01;75.40;93928.56;5072288;28;20045;-75
2022/10/23 09:20:40;;;;;;;3.83;1.88;;;;;;;18.23;75.39;93926.00;5072147;28;20059;-76
2022/10/23 09:23:15;;;;;;;3.17;1.60;;;;;;;18.19;76.28;93924.13;5072060;28;20060;-76
2022/10/23 09:25:43;;;;;;;6.25;1.67;;;;;;;18.08;75.20;93918.78;5071954;28;20053;-76
2022/10/23 09:28:19;;;;;;;3.15;1.58;;;;;;;18.20;75.04;93915.31;5068476;28;20094;-76
2022/10/23 09:30:47;;;;;;;4.05;1.73;;;;;;;18.46;72.66;93921.63;5069388;28;20058;-76
2022/10/23 09:33:18;;;;;;;4.93;1.85;;;;;;;18.46;73.39;93913.81;5049951;28;20543;-76
2022/10/23 09:35:57;;;;;;;5.25;2.00;;;;;;;18.45;73.32;93914.06;5058307;28;20048;-75
2022/10/23 09:38:28;;;;;;;3.33;1.60;;;;;;;18.24;74.40;93891.19;5071262;28;20049;-76
2022/10/23 09:40:57;;;;;;;5.60;2.75;;;;;;;18.75;72.69;93905.06;5072041;28;20470;-77
2022/10/23 09:43:26;;;;;;;3.80;2.00;;;;;;;18.92;72.02;93908.34;5071878;28;20044;-77
2022/10/23 09:45:58;;;;;;;4.53;1.50;;;;;;;18.79;69.75;93917.31;5071713;28;20129;-76
2022/10/23 09:48:26;;;;;;;4.80;1.95;;;;;;;18.87;71.62;93908.31;5071453;28;20389;-77
2022/10/23 09:50:54;;;;;;;3.28;1.45;;;;;;;19.05;70.36;93907.22;5071374;28;20094;-77
2022/10/23 09:53:34;;;;;;;8.07;2.75;;;;;;;19.14;69.87;93898.97;5071706;28;20407;-77
2022/10/23 09:56:03;;;;;;;5.22;2.22;;;;;;;19.47;69.31;93908.38;5071058;28;20080;-77
2022/10/23 09:58:36;;;;;;;3.15;1.50;;;;;;;19.51;67.21;93906.06;5071004;28;20516;-76
2022/10/23 10:01:04;;;;;;;2.90;1.67;;;;;;;19.18;67.08;93900.84;5068693;28;20052;-78
2022/10/23 10:03:32;;;;;;;4.53;2.17;;;;;;;19.28;68.77;93907.97;5065884;28;20045;-76
2022/10/23 10:06:01;;;;;;;4.93;1.70;;;;;;;19.36;66.00;93899.69;5059940;28;20110;-76
2022/10/23 10:08:36;;;;;;;3.35;1.30;;;;;;;19.44;65.77;93897.69;5071085;28;20044;-76
2022/10/23 10:11:10;;;;;;;5.47;1.83;;;;;;;18.83;65.65;93800.50;5071354;28;20466;-76
2022/10/23 10:13:59;;;;;;;7.35;1.67;;;;;;;19.55;65.04;93888.91;5066116;28;20044;-76
2022/10/23 10:16:36;;;;;;;6.00;1.60;;;;;;;19.82;64.35;93897.69;5070977;28;20102;-76
2022/10/23 10:19:16;;;;;;;3.38;1.60;;;;;;;20.00;63.16;93901.75;5070824;28;20393;-77
2022/10/23 10:21:49;;;;;;;4.97;2.08;;;;;;;20.11;65.18;93892.16;5071253;28;20409;-77
2022/10/23 10:24:21;;;;;;;3.40;1.25;;;;;;;20.30;62.36;93892.53;5070856;28;20045;-77
2022/10/23 10:26:57;;;;;;;4.32;2.40;;;;;;;19.75;64.24;93877.03;5070478;28;20040;-75
2022/10/23 10:29:41;;;;;;;5.07;1.95;;;;;;;19.55;64.38;93888.91;5070570;28;20055;-76
2022/10/23 10:32:19;;;;;;;4.80;1.65;;;;;;;19.40;63.51;93875.75;5070629;28;20109;-76
2022/10/23 10:34:55;;;;;;;3.50;1.90;;;;;;;19.63;65.04;93870.19;5070661;28;20045;-77
2022/10/23 10:37:29;;;;;;;9.27;1.95;;;;;;;20.06;64.62;93871.25;5070859;28;20070;-77
2022/10/23 10:40:02;;;;;;;3.47;1.80;;;;;;;20.26;60.70;93857.53;5070716;28;20060;-76
2022/10/23 10:42:57;;;;;;;5.35;1.63;;;;;;;20.59;58.91;93879.06;5070782;28;20086;-76
2022/10/23 10:45:33;;;;;;;5.50;1.42;;;;;;;20.82;59.33;93870.00;5063752;28;20063;-77
2022/10/23 10:48:21;;;;;;;4.03;1.52;;;;;;;20.93;58.55;93865.59;5070470;28;20048;-77
2022/10/23 10:50:55;;;;;;;4.72;1.58;;;;;;;20.91;56.23;93882.56;5070118;28;20106;-76
2022/10/23 10:53:31;;;;;;;5.63;1.40;;;;;;;20.70;56.12;93856.41;5070381;28;20083;-76
2022/10/23 10:56:01;;;;;;;2.08;0.95;;;;;;;20.79;54.31;93870.50;5070402;28;20048;-76
2022/10/23 10:58:38;;;;;;;1.98;0.90;;;;;;;20.46;55.13;93866.50;5070106;28;20041;-76
2022/10/23 11:01:14;;;;;;;2.55;1.10;;;;;;;20.26;55.37;93862.75;5070046;28;20493;-76
2022/10/23 11:03:43;;;;;;;;;;;;;;;20.08;55.83;93859.53;5070335;28;20048;-76
2022/10/23 11:06:15;;;;;;;3.47;2.00;;;;;;;20.11;57.64;93856.44;5070047;28;20331;-76
2022/10/23 11:08:42;;;;;;;3.85;1.08;;;;;;;20.44;56.93;93866.75;5069854;28;20906;-76
2022/10/23 11:11:17;;;;;;;3.58;1.20;;;;;;;20.70;55.37;93859.00;5070067;28;20142;-77
2022/10/23 11:13:45;;;;;;;2.05;0.80;;;;;;;20.67;54.08;93822.97;5070147;28;20432;-76
2022/10/23 11:16:17;;;;;;;2.97;1.05;;;;;;;21.08;54.81;93854.44;5069904;28;20106;-78
2022/10/23 11:18:52;;;;;;;5.22;1.00;;;;;;;21.04;55.44;93844.72;5069743;28;20493;-77
2022/10/23 11:21:30;;;;;;;4.20;1.43;;;;;;;21.28;53.86;93844.25;5057070;28;20447;-77
2022/10/23 11:24:32;;;;;;;5.45;1.65;;;;;;;21.21;52.90;93836.66;5069869;28;20335;-77
2022/10/23 11:27:28;;;;;;;6.88;1.20;;;;;;;20.72;52.22;93794.28;5068631;28;20504;-77
2022/10/23 11:30:23;;;;;;;1.95;0.90;;;;;;;20.78;51.96;93831.63;5069975;28;20048;-77
2022/10/23 11:33:11;;;;;;;1.70;0.80;;;;;;;20.96;52.32;93835.59;5069866;28;20049;-78